sensor_id;sensor_type;location;lat;lon;timestamp;P1;durP1;ratioP1;P2;durP2;ratioP2
15708;SDS011;7954;51.914;8.420;2023-03-08T00:00:39;10.67;;;9.57;;
15708;SDS011;7954;51.914;8.420;2023-03-08T00:03:09;10.17;;;9.17;;
15708;SDS011;7954;51.914;8.420;2023-03-08T00:05:41;10.10;;;9.10;;
15708;SDS011;7954;51.914;8.420;2023-03-08T00:08:09;9.70;;;8.33;;
15708;SDS011;7954;51.914;8.420;2023-03-08T00:10:37;9.57;;;8.60;;
15708;SDS011;7954;51.914;8.420;2023-03-08T00:13:05;9.83;;;8.33;;
15708;SDS011;7954;51.914;8.420;2023-03-08T00:15:32;9.67;;;7.80;;
15708;SDS011;7954;51.914;8.420;2023-03-08T00:18:02;8.87;;;7.80;;
15708;SDS011;7954;51.914;8.420;2023-03-08T00:20:30;7.73;;;7.03;;
15708;SDS011;7954;51.914;8.420;2023-03-08T00:22:59;7.63;;;6.93;;
15708;SDS011;7954;51.914;8.420;2023-03-08T00:25:27;7.87;;;7.07;;
15708;SDS011;7954;51.914;8.420;2023-03-08T00:27:56;6.80;;;6.20;;
15708;SDS011;7954;51.914;8.420;2023-03-08T00:30:24;7.23;;;6.53;;
15708;SDS011;7954;51.914;8.420;2023-03-08T00:32:52;7.23;;;6.53;;
15708;SDS011;7954;51.914;8.420;2023-03-08T00:35:20;6.40;;;5.80;;
15708;SDS011;7954;51.914;8.420;2023-03-08T00:37:48;6.87;;;6.17;;
15708;SDS011;7954;51.914;8.420;2023-03-08T00:40:19;6.43;;;5.83;;
15708;SDS011;7954;51.914;8.420;2023-03-08T00:42:47;6.07;;;5.50;;
15708;SDS011;7954;51.914;8.420;2023-03-08T00:45:15;6.93;;;6.23;;
15708;SDS011;7954;51.914;8.420;2023-03-08T00:47:43;5.93;;;5.40;;
15708;SDS011;7954;51.914;8.420;2023-03-08T00:50:12;5.90;;;5.40;;
15708;SDS011;7954;51.914;8.420;2023-03-08T00:52:40;6.60;;;5.47;;
15708;SDS011;7954;51.914;8.420;2023-03-08T00:55:08;5.70;;;5.10;;
15708;SDS011;7954;51.914;8.420;2023-03-08T00:57:38;6.43;;;5.50;;
15708;SDS011;7954;51.914;8.420;2023-03-08T01:00:08;6.47;;;5.87;;
15708;SDS011;7954;51.914;8.420;2023-03-08T01:02:39;7.37;;;5.90;;
15708;SDS011;7954;51.914;8.420;2023-03-08T01:05:09;6.77;;;5.83;;
15708;SDS011;7954;51.914;8.420;2023-03-08T01:07:36;6.80;;;6.13;;
15708;SDS011;7954;51.914;8.420;2023-03-08T01:10:04;6.10;;;5.57;;
15708;SDS011;7954;51.914;8.420;2023-03-08T01:12:32;6.97;;;6.27;;
15708;SDS011;7954;51.914;8.420;2023-03-08T01:15:04;6.80;;;6.10;;
15708;SDS011;7954;51.914;8.420;2023-03-08T01:17:33;6.53;;;5.80;;
15708;SDS011;7954;51.914;8.420;2023-03-08T01:20:02;6.73;;;6.13;;
15708;SDS011;7954;51.914;8.420;2023-03-08T01:22:30;6.20;;;5.60;;
15708;SDS011;7954;51.914;8.420;2023-03-08T01:24:58;6.83;;;6.13;;
15708;SDS011;7954;51.914;8.420;2023-03-08T01:27:26;7.73;;;6.93;;
15708;SDS011;7954;51.914;8.420;2023-03-08T01:29:54;7.40;;;6.70;;
15708;SDS011;7954;51.914;8.420;2023-03-08T01:32:23;8.77;;;7.17;;
15708;SDS011;7954;51.914;8.420;2023-03-08T01:34:51;9.63;;;7.20;;
15708;SDS011;7954;51.914;8.420;2023-03-08T01:37:19;7.63;;;6.90;;
15708;SDS011;7954;51.914;8.420;2023-03-08T01:39:47;7.47;;;6.70;;
15708;SDS011;7954;51.914;8.420;2023-03-08T01:42:14;7.97;;;6.77;;
15708;SDS011;7954;51.914;8.420;2023-03-08T01:44:47;8.50;;;7.70;;
15708;SDS011;7954;51.914;8.420;2023-03-08T01:47:17;7.57;;;6.77;;
15708;SDS011;7954;51.914;8.420;2023-03-08T01:49:47;7.50;;;6.70;;
15708;SDS011;7954;51.914;8.420;2023-03-08T01:52:17;8.30;;;7.50;;
15708;SDS011;7954;51.914;8.420;2023-03-08T01:54:48;8.17;;;7.33;;
15708;SDS011;7954;51.914;8.420;2023-03-08T01:57:19;9.20;;;7.73;;
15708;SDS011;7954;51.914;8.420;2023-03-08T01:59:49;8.70;;;7.40;;
15708;SDS011;7954;51.914;8.420;2023-03-08T02:02:21;8.67;;;7.83;;
15708;SDS011;7954;51.914;8.420;2023-03-08T02:04:55;9.10;;;8.20;;
15708;SDS011;7954;51.914;8.420;2023-03-08T02:07:23;13.20;;;9.27;;
15708;SDS011;7954;51.914;8.420;2023-03-08T02:09:51;11.93;;;9.77;;
15708;SDS011;7954;51.914;8.420;2023-03-08T02:12:19;12.43;;;10.27;;
15708;SDS011;7954;51.914;8.420;2023-03-08T02:14:48;12.37;;;10.40;;
15708;SDS011;7954;51.914;8.420;2023-03-08T02:17:16;12.93;;;11.03;;
15708;SDS011;7954;51.914;8.420;2023-03-08T02:19:47;11.73;;;10.57;;
15708;SDS011;7954;51.914;8.420;2023-03-08T02:22:20;12.53;;;11.23;;
15708;SDS011;7954;51.914;8.420;2023-03-08T02:24:49;11.97;;;10.77;;
15708;SDS011;7954;51.914;8.420;2023-03-08T02:27:19;12.17;;;10.63;;
15708;SDS011;7954;51.914;8.420;2023-03-08T02:29:49;13.20;;;11.20;;
15708;SDS011;7954;51.914;8.420;2023-03-08T02:32:18;11.97;;;10.73;;
15708;SDS011;7954;51.914;8.420;2023-03-08T02:34:46;12.90;;;10.23;;
15708;SDS011;7954;51.914;8.420;2023-03-08T02:37:14;11.93;;;10.73;;
15708;SDS011;7954;51.914;8.420;2023-03-08T02:39:43;12.13;;;10.70;;
15708;SDS011;7954;51.914;8.420;2023-03-08T02:42:12;13.93;;;10.60;;
15708;SDS011;7954;51.914;8.420;2023-03-08T02:44:41;11.13;;;9.93;;
15708;SDS011;7954;51.914;8.420;2023-03-08T02:47:09;12.90;;;11.47;;
15708;SDS011;7954;51.914;8.420;2023-03-08T02:49:37;11.47;;;10.27;;
15708;SDS011;7954;51.914;8.420;2023-03-08T02:52:05;12.57;;;10.53;;
15708;SDS011;7954;51.914;8.420;2023-03-08T02:54:33;15.23;;;12.10;;
15708;SDS011;7954;51.914;8.420;2023-03-08T02:57:00;15.60;;;12.67;;
15708;SDS011;7954;51.914;8.420;2023-03-08T02:59:30;13.27;;;11.83;;
15708;SDS011;7954;51.914;8.420;2023-03-08T03:01:58;14.80;;;12.37;;
15708;SDS011;7954;51.914;8.420;2023-03-08T03:04:28;14.10;;;12.20;;
15708;SDS011;7954;51.914;8.420;2023-03-08T03:06:57;16.67;;;12.93;;
15708;SDS011;7954;51.914;8.420;2023-03-08T03:09:25;12.90;;;11.57;;
15708;SDS011;7954;51.914;8.420;2023-03-08T03:11:53;14.53;;;12.73;;
15708;SDS011;7954;51.914;8.420;2023-03-08T03:14:22;14.97;;;13.13;;
15708;SDS011;7954;51.914;8.420;2023-03-08T03:16:51;12.40;;;10.87;;
15708;SDS011;7954;51.914;8.420;2023-03-08T03:19:19;15.23;;;13.47;;
15708;SDS011;7954;51.914;8.420;2023-03-08T03:21:47;14.70;;;13.03;;
15708;SDS011;7954;51.914;8.420;2023-03-08T03:24:15;14.97;;;13.37;;
15708;SDS011;7954;51.914;8.420;2023-03-08T03:26:44;14.63;;;13.10;;
15708;SDS011;7954;51.914;8.420;2023-03-08T03:29:11;17.60;;;14.53;;
15708;SDS011;7954;51.914;8.420;2023-03-08T03:31:39;16.40;;;14.27;;
15708;SDS011;7954;51.914;8.420;2023-03-08T03:34:09;19.13;;;16.50;;
15708;SDS011;7954;51.914;8.420;2023-03-08T03:36:38;19.20;;;16.07;;
15708;SDS011;7954;51.914;8.420;2023-03-08T03:39:06;17.73;;;15.77;;
15708;SDS011;7954;51.914;8.420;2023-03-08T03:41:34;19.60;;;17.50;;
15708;SDS011;7954;51.914;8.420;2023-03-08T03:44:02;19.80;;;17.70;;
15708;SDS011;7954;51.914;8.420;2023-03-08T03:46:30;20.97;;;18.10;;
15708;SDS011;7954;51.914;8.420;2023-03-08T03:48:59;21.50;;;18.77;;
15708;SDS011;7954;51.914;8.420;2023-03-08T03:51:29;22.80;;;20.40;;
15708;SDS011;7954;51.914;8.420;2023-03-08T03:53:58;23.57;;;19.33;;
15708;SDS011;7954;51.914;8.420;2023-03-08T03:56:26;24.77;;;20.33;;
15708;SDS011;7954;51.914;8.420;2023-03-08T03:58:54;24.97;;;20.00;;
15708;SDS011;7954;51.914;8.420;2023-03-08T04:01:23;24.97;;;19.77;;
15708;SDS011;7954;51.914;8.420;2023-03-08T04:03:52;25.30;;;21.93;;
15708;SDS011;7954;51.914;8.420;2023-03-08T04:06:22;24.57;;;21.53;;
15708;SDS011;7954;51.914;8.420;2023-03-08T04:08:53;22.70;;;19.87;;
15708;SDS011;7954;51.914;8.420;2023-03-08T04:11:23;25.27;;;21.60;;
15708;SDS011;7954;51.914;8.420;2023-03-08T04:13:52;26.80;;;21.83;;
15708;SDS011;7954;51.914;8.420;2023-03-08T04:16:21;28.73;;;22.17;;
15708;SDS011;7954;51.914;8.420;2023-03-08T04:18:54;27.87;;;22.10;;
15708;SDS011;7954;51.914;8.420;2023-03-08T04:21:23;26.67;;;22.47;;
15708;SDS011;7954;51.914;8.420;2023-03-08T04:23:53;30.00;;;23.60;;
15708;SDS011;7954;51.914;8.420;2023-03-08T04:26:22;28.50;;;22.90;;
15708;SDS011;7954;51.914;8.420;2023-03-08T04:28:50;30.47;;;24.10;;
15708;SDS011;7954;51.914;8.420;2023-03-08T04:31:20;30.17;;;23.37;;
15708;SDS011;7954;51.914;8.420;2023-03-08T04:33:50;31.00;;;23.87;;
15708;SDS011;7954;51.914;8.420;2023-03-08T04:36:19;29.80;;;23.80;;
15708;SDS011;7954;51.914;8.420;2023-03-08T04:38:47;28.30;;;22.87;;
15708;SDS011;7954;51.914;8.420;2023-03-08T04:41:16;30.03;;;23.63;;
15708;SDS011;7954;51.914;8.420;2023-03-08T04:43:46;27.60;;;22.47;;
15708;SDS011;7954;51.914;8.420;2023-03-08T04:46:17;30.20;;;24.33;;
15708;SDS011;7954;51.914;8.420;2023-03-08T04:48:47;28.10;;;22.33;;
15708;SDS011;7954;51.914;8.420;2023-03-08T04:51:18;36.00;;;27.23;;
15708;SDS011;7954;51.914;8.420;2023-03-08T04:53:47;30.90;;;24.13;;
15708;SDS011;7954;51.914;8.420;2023-03-08T04:56:17;33.77;;;25.20;;
15708;SDS011;7954;51.914;8.420;2023-03-08T04:58:46;29.43;;;23.10;;
15708;SDS011;7954;51.914;8.420;2023-03-08T05:01:14;35.20;;;25.73;;
15708;SDS011;7954;51.914;8.420;2023-03-08T05:03:44;36.13;;;25.83;;
15708;SDS011;7954;51.914;8.420;2023-03-08T05:06:15;32.63;;;25.83;;
15708;SDS011;7954;51.914;8.420;2023-03-08T05:08:44;35.57;;;25.03;;
15708;SDS011;7954;51.914;8.420;2023-03-08T05:11:12;31.07;;;24.90;;
15708;SDS011;7954;51.914;8.420;2023-03-08T05:13:46;35.70;;;25.70;;
15708;SDS011;7954;51.914;8.420;2023-03-08T05:16:14;32.63;;;25.10;;
15708;SDS011;7954;51.914;8.420;2023-03-08T05:18:42;35.33;;;25.83;;
15708;SDS011;7954;51.914;8.420;2023-03-08T05:21:11;32.10;;;24.23;;
15708;SDS011;7954;51.914;8.420;2023-03-08T05:23:40;32.97;;;25.17;;
15708;SDS011;7954;51.914;8.420;2023-03-08T05:26:10;35.20;;;25.40;;
15708;SDS011;7954;51.914;8.420;2023-03-08T05:28:41;30.57;;;23.27;;
15708;SDS011;7954;51.914;8.420;2023-03-08T05:31:10;31.17;;;22.57;;
15708;SDS011;7954;51.914;8.420;2023-03-08T05:33:41;30.93;;;23.70;;
15708;SDS011;7954;51.914;8.420;2023-03-08T05:36:13;33.43;;;23.60;;
15708;SDS011;7954;51.914;8.420;2023-03-08T05:38:41;33.03;;;25.27;;
15708;SDS011;7954;51.914;8.420;2023-03-08T05:41:11;35.47;;;24.70;;
15708;SDS011;7954;51.914;8.420;2023-03-08T05:43:42;29.83;;;24.23;;
15708;SDS011;7954;51.914;8.420;2023-03-08T05:46:10;31.37;;;24.03;;
15708;SDS011;7954;51.914;8.420;2023-03-08T05:48:39;29.10;;;23.00;;
15708;SDS011;7954;51.914;8.420;2023-03-08T05:51:08;31.90;;;23.70;;
15708;SDS011;7954;51.914;8.420;2023-03-08T05:53:37;34.27;;;25.13;;
15708;SDS011;7954;51.914;8.420;2023-03-08T05:56:06;30.03;;;22.63;;
15708;SDS011;7954;51.914;8.420;2023-03-08T05:58:36;37.67;;;26.40;;
15708;SDS011;7954;51.914;8.420;2023-03-08T06:01:09;31.67;;;23.47;;
15708;SDS011;7954;51.914;8.420;2023-03-08T06:03:39;31.97;;;24.30;;
15708;SDS011;7954;51.914;8.420;2023-03-08T06:06:07;46.13;;;29.57;;
15708;SDS011;7954;51.914;8.420;2023-03-08T06:08:35;31.93;;;23.93;;
15708;SDS011;7954;51.914;8.420;2023-03-08T06:11:03;40.03;;;28.13;;
15708;SDS011;7954;51.914;8.420;2023-03-08T06:13:31;36.70;;;27.07;;
15708;SDS011;7954;51.914;8.420;2023-03-08T06:15:59;31.27;;;24.57;;
15708;SDS011;7954;51.914;8.420;2023-03-08T06:18:29;40.40;;;26.93;;
15708;SDS011;7954;51.914;8.420;2023-03-08T06:20:58;37.80;;;26.63;;
15708;SDS011;7954;51.914;8.420;2023-03-08T06:23:27;39.23;;;26.30;;
15708;SDS011;7954;51.914;8.420;2023-03-08T06:25:57;32.33;;;23.97;;
15708;SDS011;7954;51.914;8.420;2023-03-08T06:28:25;35.07;;;26.33;;
15708;SDS011;7954;51.914;8.420;2023-03-08T06:30:54;35.87;;;26.90;;
15708;SDS011;7954;51.914;8.420;2023-03-08T06:33:23;38.20;;;26.80;;
15708;SDS011;7954;51.914;8.420;2023-03-08T06:35:57;36.63;;;26.27;;
15708;SDS011;7954;51.914;8.420;2023-03-08T06:38:26;38.47;;;27.07;;
15708;SDS011;7954;51.914;8.420;2023-03-08T06:40:58;33.80;;;26.20;;
15708;SDS011;7954;51.914;8.420;2023-03-08T06:43:25;40.47;;;27.87;;
15708;SDS011;7954;51.914;8.420;2023-03-08T06:45:54;37.73;;;27.97;;
15708;SDS011;7954;51.914;8.420;2023-03-08T06:48:22;35.03;;;26.53;;
15708;SDS011;7954;51.914;8.420;2023-03-08T06:50:51;34.83;;;25.60;;
15708;SDS011;7954;51.914;8.420;2023-03-08T06:53:22;38.00;;;27.27;;
15708;SDS011;7954;51.914;8.420;2023-03-08T06:55:50;38.37;;;27.70;;
15708;SDS011;7954;51.914;8.420;2023-03-08T06:58:19;31.93;;;24.40;;
15708;SDS011;7954;51.914;8.420;2023-03-08T07:00:47;35.73;;;25.50;;
15708;SDS011;7954;51.914;8.420;2023-03-08T07:03:16;40.07;;;26.47;;
15708;SDS011;7954;51.914;8.420;2023-03-08T07:05:44;34.17;;;25.13;;
15708;SDS011;7954;51.914;8.420;2023-03-08T07:08:12;33.93;;;25.00;;
15708;SDS011;7954;51.914;8.420;2023-03-08T07:10:41;33.60;;;24.20;;
15708;SDS011;7954;51.914;8.420;2023-03-08T07:13:09;39.97;;;26.43;;
15708;SDS011;7954;51.914;8.420;2023-03-08T07:15:37;30.73;;;22.43;;
15708;SDS011;7954;51.914;8.420;2023-03-08T07:18:06;31.27;;;23.70;;
15708;SDS011;7954;51.914;8.420;2023-03-08T07:20:34;28.13;;;22.33;;
15708;SDS011;7954;51.914;8.420;2023-03-08T07:23:02;26.47;;;21.50;;
15708;SDS011;7954;51.914;8.420;2023-03-08T07:25:30;28.90;;;23.50;;
15708;SDS011;7954;51.914;8.420;2023-03-08T07:28:00;25.53;;;21.63;;
15708;SDS011;7954;51.914;8.420;2023-03-08T07:30:28;30.10;;;23.67;;
15708;SDS011;7954;51.914;8.420;2023-03-08T07:32:56;31.57;;;25.13;;
15708;SDS011;7954;51.914;8.420;2023-03-08T07:35:26;29.53;;;24.07;;
15708;SDS011;7954;51.914;8.420;2023-03-08T07:37:54;34.83;;;28.00;;
15708;SDS011;7954;51.914;8.420;2023-03-08T07:40:21;30.77;;;24.63;;
15708;SDS011;7954;51.914;8.420;2023-03-08T07:42:50;29.87;;;23.47;;
15708;SDS011;7954;51.914;8.420;2023-03-08T07:45:19;31.83;;;24.13;;
15708;SDS011;7954;51.914;8.420;2023-03-08T07:47:48;32.80;;;24.37;;
15708;SDS011;7954;51.914;8.420;2023-03-08T07:50:18;29.83;;;23.03;;
15708;SDS011;7954;51.914;8.420;2023-03-08T07:52:46;29.00;;;23.40;;
15708;SDS011;7954;51.914;8.420;2023-03-08T07:55:15;27.83;;;22.50;;
15708;SDS011;7954;51.914;8.420;2023-03-08T07:57:43;29.17;;;22.97;;
15708;SDS011;7954;51.914;8.420;2023-03-08T08:00:11;33.30;;;26.40;;
15708;SDS011;7954;51.914;8.420;2023-03-08T08:02:41;27.23;;;21.73;;
15708;SDS011;7954;51.914;8.420;2023-03-08T08:05:12;27.37;;;22.13;;
15708;SDS011;7954;51.914;8.420;2023-03-08T08:07:40;24.10;;;20.67;;
15708;SDS011;7954;51.914;8.420;2023-03-08T08:10:09;24.03;;;20.03;;
15708;SDS011;7954;51.914;8.420;2023-03-08T08:12:37;23.13;;;19.37;;
15708;SDS011;7954;51.914;8.420;2023-03-08T08:15:05;25.67;;;19.80;;
15708;SDS011;7954;51.914;8.420;2023-03-08T08:17:33;22.60;;;18.80;;
15708;SDS011;7954;51.914;8.420;2023-03-08T08:20:05;24.37;;;19.17;;
15708;SDS011;7954;51.914;8.420;2023-03-08T08:22:34;24.43;;;19.50;;
15708;SDS011;7954;51.914;8.420;2023-03-08T08:25:03;19.77;;;17.63;;
15708;SDS011;7954;51.914;8.420;2023-03-08T08:27:31;19.57;;;17.57;;
15708;SDS011;7954;51.914;8.420;2023-03-08T08:29:59;24.13;;;19.97;;
15708;SDS011;7954;51.914;8.420;2023-03-08T08:32:27;18.43;;;16.43;;
15708;SDS011;7954;51.914;8.420;2023-03-08T08:34:56;17.50;;;15.70;;
15708;SDS011;7954;51.914;8.420;2023-03-08T08:37:27;19.33;;;15.03;;
15708;SDS011;7954;51.914;8.420;2023-03-08T08:39:55;17.20;;;14.67;;
15708;SDS011;7954;51.914;8.420;2023-03-08T08:42:24;17.03;;;15.23;;
15708;SDS011;7954;51.914;8.420;2023-03-08T08:44:53;16.43;;;14.73;;
15708;SDS011;7954;51.914;8.420;2023-03-08T08:47:21;17.67;;;15.00;;
15708;SDS011;7954;51.914;8.420;2023-03-08T08:49:49;16.33;;;14.33;;
15708;SDS011;7954;51.914;8.420;2023-03-08T08:52:18;15.43;;;13.47;;
15708;SDS011;7954;51.914;8.420;2023-03-08T08:54:47;15.63;;;13.97;;
15708;SDS011;7954;51.914;8.420;2023-03-08T08:57:15;14.57;;;12.97;;
15708;SDS011;7954;51.914;8.420;2023-03-08T08:59:43;14.80;;;13.30;;
15708;SDS011;7954;51.914;8.420;2023-03-08T09:02:12;17.27;;;14.33;;
15708;SDS011;7954;51.914;8.420;2023-03-08T09:04:40;16.10;;;14.37;;
15708;SDS011;7954;51.914;8.420;2023-03-08T09:07:09;13.83;;;12.43;;
15708;SDS011;7954;51.914;8.420;2023-03-08T09:09:36;13.63;;;12.23;;
15708;SDS011;7954;51.914;8.420;2023-03-08T09:12:08;13.27;;;11.97;;
15708;SDS011;7954;51.914;8.420;2023-03-08T09:14:36;12.90;;;11.60;;
15708;SDS011;7954;51.914;8.420;2023-03-08T09:17:04;11.40;;;10.27;;
15708;SDS011;7954;51.914;8.420;2023-03-08T09:19:32;12.83;;;11.40;;
15708;SDS011;7954;51.914;8.420;2023-03-08T09:22:01;11.57;;;10.50;;
15708;SDS011;7954;51.914;8.420;2023-03-08T09:24:30;12.33;;;11.13;;
15708;SDS011;7954;51.914;8.420;2023-03-08T09:26:57;10.47;;;9.50;;
15708;SDS011;7954;51.914;8.420;2023-03-08T09:29:27;11.47;;;10.33;;
15708;SDS011;7954;51.914;8.420;2023-03-08T09:31:55;10.97;;;9.87;;
15708;SDS011;7954;51.914;8.420;2023-03-08T09:34:24;11.73;;;10.63;;
15708;SDS011;7954;51.914;8.420;2023-03-08T09:36:52;11.57;;;10.53;;
15708;SDS011;7954;51.914;8.420;2023-03-08T09:39:22;10.90;;;9.90;;
15708;SDS011;7954;51.914;8.420;2023-03-08T09:41:52;10.00;;;9.10;;
15708;SDS011;7954;51.914;8.420;2023-03-08T09:47:39;11.03;;;9.93;;
15708;SDS011;7954;51.914;8.420;2023-03-08T09:50:14;10.57;;;9.57;;
15708;SDS011;7954;51.914;8.420;2023-03-08T09:52:48;8.90;;;8.03;;
15708;SDS011;7954;51.914;8.420;2023-03-08T09:55:20;8.43;;;7.40;;
15708;SDS011;7954;51.914;8.420;2023-03-08T09:57:56;7.80;;;6.90;;
15708;SDS011;7954;51.914;8.420;2023-03-08T10:00:30;6.83;;;6.23;;
15708;SDS011;7954;51.914;8.420;2023-03-08T10:03:12;6.83;;;6.13;;
15708;SDS011;7954;51.914;8.420;2023-03-08T10:05:54;6.90;;;6.30;;
15708;SDS011;7954;51.914;8.420;2023-03-08T10:08:30;6.13;;;5.50;;
15708;SDS011;7954;51.914;8.420;2023-03-08T10:11:02;5.90;;;5.23;;
15708;SDS011;7954;51.914;8.420;2023-03-08T10:13:33;6.63;;;6.03;;
15708;SDS011;7954;51.914;8.420;2023-03-08T10:16:10;6.07;;;5.47;;
15708;SDS011;7954;51.914;8.420;2023-03-08T10:18:43;7.53;;;6.80;;
15708;SDS011;7954;51.914;8.420;2023-03-08T10:21:16;6.90;;;6.20;;
15708;SDS011;7954;51.914;8.420;2023-03-08T10:23:46;7.37;;;6.67;;
15708;SDS011;7954;51.914;8.420;2023-03-08T10:26:19;6.67;;;6.03;;
15708;SDS011;7954;51.914;8.420;2023-03-08T10:28:46;8.43;;;7.70;;
15708;SDS011;7954;51.914;8.420;2023-03-08T10:31:20;6.70;;;6.10;;
15708;SDS011;7954;51.914;8.420;2023-03-08T10:33:52;5.53;;;5.03;;
15708;SDS011;7954;51.914;8.420;2023-03-08T10:36:27;5.40;;;4.93;;
15708;SDS011;7954;51.914;8.420;2023-03-08T10:38:56;5.00;;;4.50;;
15708;SDS011;7954;51.914;8.420;2023-03-08T10:41:26;4.90;;;4.50;;
15708;SDS011;7954;51.914;8.420;2023-03-08T10:43:58;4.50;;;4.10;;
15708;SDS011;7954;51.914;8.420;2023-03-08T10:46:28;4.97;;;4.57;;
15708;SDS011;7954;51.914;8.420;2023-03-08T10:49:05;4.93;;;4.53;;
15708;SDS011;7954;51.914;8.420;2023-03-08T10:51:34;5.07;;;4.67;;
15708;SDS011;7954;51.914;8.420;2023-03-08T10:54:02;6.00;;;5.50;;
15708;SDS011;7954;51.914;8.420;2023-03-08T10:56:33;6.07;;;5.57;;
15708;SDS011;7954;51.914;8.420;2023-03-08T10:59:05;5.60;;;5.20;;
15708;SDS011;7954;51.914;8.420;2023-03-08T11:01:48;4.70;;;4.30;;
15708;SDS011;7954;51.914;8.420;2023-03-08T11:04:19;4.87;;;4.40;;
15708;SDS011;7954;51.914;8.420;2023-03-08T11:06:48;4.23;;;3.93;;
15708;SDS011;7954;51.914;8.420;2023-03-08T11:09:18;4.63;;;4.23;;
15708;SDS011;7954;51.914;8.420;2023-03-08T11:11:47;4.27;;;3.87;;
15708;SDS011;7954;51.914;8.420;2023-03-08T11:14:16;4.20;;;3.90;;
15708;SDS011;7954;51.914;8.420;2023-03-08T11:16:45;3.67;;;3.37;;
15708;SDS011;7954;51.914;8.420;2023-03-08T11:19:31;7.87;;;7.17;;
15708;SDS011;7954;51.914;8.420;2023-03-08T11:22:12;9.77;;;8.87;;
15708;SDS011;7954;51.914;8.420;2023-03-08T11:27:58;4.00;;;3.70;;
15708;SDS011;7954;51.914;8.420;2023-03-08T11:30:37;3.97;;;3.67;;
15708;SDS011;7954;51.914;8.420;2023-03-08T11:33:26;3.97;;;3.67;;
15708;SDS011;7954;51.914;8.420;2023-03-08T11:36:06;4.03;;;3.73;;
15708;SDS011;7954;51.914;8.420;2023-03-08T11:38:39;5.40;;;4.90;;
15708;SDS011;7954;51.914;8.420;2023-03-08T11:41:11;4.27;;;3.97;;
15708;SDS011;7954;51.914;8.420;2023-03-08T11:43:50;3.40;;;3.10;;
15708;SDS011;7954;51.914;8.420;2023-03-08T11:46:31;4.70;;;4.30;;
15708;SDS011;7954;51.914;8.420;2023-03-08T11:49:13;4.87;;;4.47;;
15708;SDS011;7954;51.914;8.420;2023-03-08T11:51:51;3.97;;;3.57;;
15708;SDS011;7954;51.914;8.420;2023-03-08T11:54:32;3.53;;;3.23;;
15708;SDS011;7954;51.914;8.420;2023-03-08T11:57:13;2.70;;;2.50;;
15708;SDS011;7954;51.914;8.420;2023-03-08T11:59:45;2.47;;;2.27;;
15708;SDS011;7954;51.914;8.420;2023-03-08T12:02:19;3.67;;;3.30;;
15708;SDS011;7954;51.914;8.420;2023-03-08T12:04:53;2.80;;;2.60;;
15708;SDS011;7954;51.914;8.420;2023-03-08T12:07:32;2.17;;;2.00;;
15708;SDS011;7954;51.914;8.420;2023-03-08T12:10:07;2.20;;;2.00;;
15708;SDS011;7954;51.914;8.420;2023-03-08T12:12:42;2.50;;;2.10;;
15708;SDS011;7954;51.914;8.420;2023-03-08T12:15:17;2.60;;;2.40;;
15708;SDS011;7954;51.914;8.420;2023-03-08T12:17:51;3.53;;;2.33;;
15708;SDS011;7954;51.914;8.420;2023-03-08T12:20:33;2.50;;;2.30;;
15708;SDS011;7954;51.914;8.420;2023-03-08T12:23:07;3.80;;;3.50;;
15708;SDS011;7954;51.914;8.420;2023-03-08T12:25:46;3.40;;;3.10;;
15708;SDS011;7954;51.914;8.420;2023-03-08T12:28:18;2.63;;;2.43;;
15708;SDS011;7954;51.914;8.420;2023-03-08T12:30:53;3.00;;;2.80;;
15708;SDS011;7954;51.914;8.420;2023-03-08T12:33:33;3.63;;;3.33;;
15708;SDS011;7954;51.914;8.420;2023-03-08T12:36:02;3.90;;;3.60;;
15708;SDS011;7954;51.914;8.420;2023-03-08T12:38:35;3.00;;;2.80;;
15708;SDS011;7954;51.914;8.420;2023-03-08T12:41:05;4.13;;;3.83;;
15708;SDS011;7954;51.914;8.420;2023-03-08T12:43:56;5.57;;;5.07;;
15708;SDS011;7954;51.914;8.420;2023-03-08T12:46:25;5.80;;;5.30;;
15708;SDS011;7954;51.914;8.420;2023-03-08T12:48:53;5.67;;;5.10;;
15708;SDS011;7954;51.914;8.420;2023-03-08T12:51:24;7.43;;;6.30;;
15708;SDS011;7954;51.914;8.420;2023-03-08T12:54:02;7.10;;;6.40;;
15708;SDS011;7954;51.914;8.420;2023-03-08T12:56:32;6.70;;;6.00;;
15708;SDS011;7954;51.914;8.420;2023-03-08T12:59:21;3.23;;;3.03;;
15708;SDS011;7954;51.914;8.420;2023-03-08T13:01:58;3.03;;;2.00;;
15708;SDS011;7954;51.914;8.420;2023-03-08T13:04:28;2.50;;;2.30;;
15708;SDS011;7954;51.914;8.420;2023-03-08T13:07:19;2.60;;;2.40;;
15708;SDS011;7954;51.914;8.420;2023-03-08T13:09:57;1.80;;;1.60;;
15708;SDS011;7954;51.914;8.420;2023-03-08T13:12:36;1.80;;;1.70;;
15708;SDS011;7954;51.914;8.420;2023-03-08T13:15:21;1.60;;;1.50;;
15708;SDS011;7954;51.914;8.420;2023-03-08T13:17:55;1.60;;;1.43;;
15708;SDS011;7954;51.914;8.420;2023-03-08T13:20:33;1.40;;;1.30;;
15708;SDS011;7954;51.914;8.420;2023-03-08T13:23:21;1.40;;;1.30;;
15708;SDS011;7954;51.914;8.420;2023-03-08T13:26:06;1.40;;;1.30;;
15708;SDS011;7954;51.914;8.420;2023-03-08T13:28:44;1.60;;;1.50;;
15708;SDS011;7954;51.914;8.420;2023-03-08T13:31:14;1.47;;;1.37;;
15708;SDS011;7954;51.914;8.420;2023-03-08T13:33:45;3.07;;;1.50;;
15708;SDS011;7954;51.914;8.420;2023-03-08T13:36:16;1.50;;;1.40;;
15708;SDS011;7954;51.914;8.420;2023-03-08T13:38:53;1.27;;;1.20;;
15708;SDS011;7954;51.914;8.420;2023-03-08T13:41:33;1.50;;;1.40;;
15708;SDS011;7954;51.914;8.420;2023-03-08T13:44:02;1.70;;;1.60;;
15708;SDS011;7954;51.914;8.420;2023-03-08T13:46:31;1.60;;;1.50;;
15708;SDS011;7954;51.914;8.420;2023-03-08T13:49:00;1.80;;;1.70;;
15708;SDS011;7954;51.914;8.420;2023-03-08T13:51:28;1.50;;;1.40;;
15708;SDS011;7954;51.914;8.420;2023-03-08T13:53:56;1.70;;;1.60;;
15708;SDS011;7954;51.914;8.420;2023-03-08T13:56:25;1.70;;;1.60;;
15708;SDS011;7954;51.914;8.420;2023-03-08T13:58:56;2.00;;;1.80;;
15708;SDS011;7954;51.914;8.420;2023-03-08T14:01:26;1.63;;;1.53;;
15708;SDS011;7954;51.914;8.420;2023-03-08T14:03:54;2.00;;;1.90;;
15708;SDS011;7954;51.914;8.420;2023-03-08T14:06:25;2.20;;;2.00;;
15708;SDS011;7954;51.914;8.420;2023-03-08T14:08:55;2.40;;;2.20;;
15708;SDS011;7954;51.914;8.420;2023-03-08T14:11:26;4.80;;;4.30;;
15708;SDS011;7954;51.914;8.420;2023-03-08T14:13:58;3.20;;;3.00;;
15708;SDS011;7954;51.914;8.420;2023-03-08T14:16:29;2.73;;;2.50;;
15708;SDS011;7954;51.914;8.420;2023-03-08T14:19:07;3.10;;;2.90;;
15708;SDS011;7954;51.914;8.420;2023-03-08T14:21:36;3.27;;;3.00;;
15708;SDS011;7954;51.914;8.420;2023-03-08T14:24:05;5.47;;;4.97;;
15708;SDS011;7954;51.914;8.420;2023-03-08T14:26:36;4.10;;;3.80;;
15708;SDS011;7954;51.914;8.420;2023-03-08T14:29:15;3.93;;;3.60;;
15708;SDS011;7954;51.914;8.420;2023-03-08T14:31:51;3.77;;;3.37;;
15708;SDS011;7954;51.914;8.420;2023-03-08T14:34:23;3.77;;;3.47;;
15708;SDS011;7954;51.914;8.420;2023-03-08T14:36:55;3.33;;;3.03;;
15708;SDS011;7954;51.914;8.420;2023-03-08T14:39:26;4.20;;;3.80;;
15708;SDS011;7954;51.914;8.420;2023-03-08T14:41:56;5.17;;;4.17;;
15708;SDS011;7954;51.914;8.420;2023-03-08T14:44:26;6.03;;;5.43;;
15708;SDS011;7954;51.914;8.420;2023-03-08T14:47:05;3.83;;;3.43;;
15708;SDS011;7954;51.914;8.420;2023-03-08T14:49:34;4.30;;;3.90;;
15708;SDS011;7954;51.914;8.420;2023-03-08T14:52:02;3.57;;;3.27;;
15708;SDS011;7954;51.914;8.420;2023-03-08T14:54:31;3.73;;;3.40;;
15708;SDS011;7954;51.914;8.420;2023-03-08T14:57:01;2.60;;;2.40;;
15708;SDS011;7954;51.914;8.420;2023-03-08T14:59:43;2.80;;;2.60;;
15708;SDS011;7954;51.914;8.420;2023-03-08T15:02:12;4.10;;;3.70;;
15708;SDS011;7954;51.914;8.420;2023-03-08T15:04:42;2.80;;;2.60;;
15708;SDS011;7954;51.914;8.420;2023-03-08T15:07:13;2.70;;;2.50;;
15708;SDS011;7954;51.914;8.420;2023-03-08T15:09:44;2.93;;;2.70;;
15708;SDS011;7954;51.914;8.420;2023-03-08T15:12:13;2.90;;;2.70;;
15708;SDS011;7954;51.914;8.420;2023-03-08T15:14:43;2.80;;;2.60;;